createdAt,value
2023-02-16T00:01:00.274Z,5.08
2023-02-16T00:03:40.682Z,5.04
2023-02-16T00:06:15.326Z,5.02
2023-02-16T00:08:49.469Z,5.03
2023-02-16T00:11:54.524Z,5.07
2023-02-16T00:14:26.643Z,5.10
2023-02-16T00:17:00.131Z,5.08
2023-02-16T00:19:31.771Z,5.08
2023-02-16T00:22:02.198Z,5.06
2023-02-16T00:24:32.690Z,5.05
2023-02-16T00:27:01.718Z,5.04
2023-02-16T00:29:38.279Z,5.00
2023-02-16T00:32:14.015Z,4.99
2023-02-16T00:34:44.204Z,4.98
2023-02-16T00:37:14.690Z,4.99
2023-02-16T00:39:45.545Z,4.97
2023-02-16T00:42:22.698Z,4.92
2023-02-16T00:44:54.312Z,4.90
2023-02-16T00:47:29.541Z,4.90
2023-02-16T00:49:59.637Z,4.90
2023-02-16T00:52:40.407Z,4.90
2023-02-16T00:55:18.516Z,4.92
2023-02-16T00:57:56.541Z,4.90
2023-02-16T04:00:17.289Z,4.01
2023-02-16T04:02:46.781Z,4.01
2023-02-16T04:05:16.154Z,4.02
2023-02-16T04:07:45.353Z,4.07
2023-02-16T04:10:14.312Z,4.09
2023-02-16T04:12:44.218Z,4.05
2023-02-16T04:15:19.970Z,3.96
2023-02-16T04:17:49.212Z,3.95
2023-02-16T04:20:21.361Z,3.93
2023-02-16T04:22:51.802Z,3.85
2023-02-16T04:25:22.254Z,3.85
2023-02-16T04:27:52.555Z,3.87
2023-02-16T04:30:27.339Z,3.86
2023-02-16T04:32:57.450Z,3.81
2023-02-16T04:35:26.943Z,3.72
2023-02-16T04:37:56.228Z,3.63
2023-02-16T04:40:25.504Z,3.61
2023-02-16T04:42:54.555Z,3.60
2023-02-16T04:45:23.814Z,3.57
2023-02-16T04:47:53.428Z,3.52
2023-02-16T04:50:22.621Z,3.49
2023-02-16T04:52:51.258Z,3.43
2023-02-16T04:55:20.745Z,3.39
2023-02-16T04:57:49.219Z,3.41
2023-02-16T05:00:18.367Z,3.40
2023-02-16T05:02:46.771Z,3.40
2023-02-16T05:05:16.228Z,3.40
2023-02-16T05:07:45.778Z,3.40
2023-02-16T05:10:14.862Z,3.37
2023-02-16T05:13:02.789Z,3.38
2023-02-16T05:15:32.073Z,3.37
2023-02-16T05:18:01.269Z,3.36
2023-02-16T05:20:48.804Z,3.34
2023-02-16T05:23:18.084Z,3.32
2023-02-16T05:25:47.663Z,3.31
2023-02-16T05:28:17.161Z,3.33
2023-02-16T05:30:46.554Z,3.30
2023-02-16T05:33:15.869Z,3.26
2023-02-16T05:35:44.379Z,3.24
2023-02-16T05:38:13.621Z,3.20
2023-02-16T05:40:42.895Z,3.15
2023-02-16T05:43:12.351Z,3.15
2023-02-16T05:45:41.862Z,3.16
2023-02-16T05:48:10.402Z,3.19
2023-02-16T05:50:40.040Z,3.16
2023-02-16T05:53:09.047Z,3.16
2023-02-16T05:55:37.797Z,3.19
2023-02-16T05:58:07.188Z,3.23
2023-02-16T06:00:37.498Z,3.26
2023-02-16T06:03:06.583Z,3.26
2023-02-16T06:05:35.748Z,3.24
2023-02-16T06:08:05.032Z,3.25
2023-02-16T06:10:34.397Z,3.25
2023-02-16T06:13:03.950Z,3.28
2023-02-16T06:15:33.562Z,3.26
2023-02-16T06:18:03.935Z,3.21
2023-02-16T06:20:33.125Z,3.15
2023-02-16T06:23:02.201Z,3.16
2023-02-16T06:25:31.585Z,3.13
2023-02-16T06:28:02.028Z,3.11
2023-02-16T06:30:31.504Z,3.11
2023-02-16T06:33:00.849Z,3.12
2023-02-16T06:35:30.398Z,3.12
2023-02-16T06:38:00.002Z,3.09
2023-02-16T06:40:29.807Z,3.06
2023-02-16T06:42:58.984Z,3.10
2023-02-16T06:45:28.364Z,3.10
2023-02-16T06:47:56.965Z,3.12
2023-02-16T06:50:26.302Z,3.16
2023-02-16T06:52:55.956Z,3.24
2023-02-16T06:55:25.314Z,3.22
2023-02-16T06:57:56.990Z,3.22
2023-02-16T07:00:26.650Z,3.24
2023-02-16T07:02:56.367Z,3.28
2023-02-16T07:05:25.896Z,3.33
2023-02-16T07:07:55.393Z,3.35
2023-02-16T07:10:24.709Z,3.37
2023-02-16T07:12:53.330Z,3.43
2023-02-16T07:15:22.611Z,3.48
2023-02-16T07:17:52.271Z,3.54
2023-02-16T07:20:21.772Z,3.55
2023-02-16T07:22:50.863Z,3.57
2023-02-16T07:25:20.134Z,3.53
2023-02-16T07:27:49.850Z,3.49
2023-02-16T07:30:19.553Z,3.49
2023-02-16T07:32:49.405Z,3.48
2023-02-16T07:35:18.861Z,3.49
2023-02-16T07:37:48.106Z,3.49
2023-02-16T07:40:16.464Z,3.45
2023-02-16T07:42:45.950Z,3.44
2023-02-16T07:45:15.121Z,3.48
2023-02-16T07:47:43.706Z,3.54
2023-02-16T07:50:12.088Z,3.58
2023-02-16T07:52:40.951Z,3.60
2023-02-16T07:55:11.718Z,3.59
2023-02-16T07:57:40.363Z,3.61
2023-02-16T08:00:09.499Z,3.59
2023-02-16T08:02:41.567Z,3.60
2023-02-16T08:05:11.460Z,3.64
2023-02-16T08:07:41.949Z,3.68
2023-02-16T08:10:13.456Z,3.70
2023-02-16T08:12:43.215Z,3.74
2023-02-16T08:15:12.325Z,3.75
2023-02-16T08:17:41.823Z,3.76
2023-02-16T08:20:10.937Z,3.82
2023-02-16T08:22:39.430Z,3.83
2023-02-16T08:25:08.564Z,3.84
2023-02-16T08:27:37.552Z,3.89
2023-02-16T08:30:13.311Z,3.93
2023-02-16T08:32:43.945Z,3.96
2023-02-16T08:35:13.214Z,4.00
2023-02-16T08:37:42.417Z,4.04
2023-02-16T08:40:11.980Z,4.06
2023-02-16T08:42:40.937Z,4.07
2023-02-16T08:45:10.526Z,4.09
2023-02-16T08:47:39.471Z,4.14
2023-02-16T08:50:09.301Z,4.19
2023-02-16T08:52:39.152Z,4.21
2023-02-16T08:55:08.475Z,4.22
2023-02-16T08:57:37.731Z,4.27
2023-02-16T09:00:26.590Z,4.29
2023-02-16T09:02:59.820Z,4.31
2023-02-16T09:05:29.268Z,4.35
2023-02-16T09:07:59.086Z,4.40
2023-02-16T09:10:28.511Z,4.42
2023-02-16T09:12:58.570Z,4.43
2023-02-16T09:15:28.150Z,4.45
2023-02-16T09:17:57.102Z,4.47
2023-02-16T09:20:27.977Z,4.49
2023-02-16T09:22:57.371Z,4.52
2023-02-16T09:25:26.602Z,4.58
2023-02-16T09:27:56.287Z,4.66
2023-02-16T09:30:26.384Z,4.73
2023-02-16T09:32:55.974Z,4.78
2023-02-16T09:35:26.184Z,4.84
2023-02-16T09:37:55.566Z,4.89
2023-02-16T09:40:25.688Z,4.92
2023-02-16T09:43:13.964Z,4.96
2023-02-16T09:45:51.064Z,5.00
2023-02-16T09:48:36.814Z,4.99
2023-02-16T09:51:09.319Z,5.06
2023-02-16T09:53:43.955Z,5.18
2023-02-16T09:56:39.884Z,5.27
2023-02-16T09:59:23.722Z,5.34
2023-02-16T10:02:04.951Z,5.38
2023-02-16T10:05:02.629Z,5.41
2023-02-16T10:08:02.922Z,5.43
2023-02-16T10:10:45.640Z,5.51
2023-02-16T10:13:23.485Z,5.55
2023-02-16T10:15:55.770Z,5.56
2023-02-16T10:18:34.222Z,5.56
2023-02-16T10:21:08.079Z,5.54
2023-02-16T10:23:43.309Z,5.54
2023-02-16T10:26:18.947Z,5.53
2023-02-16T10:28:57.598Z,5.49
2023-02-16T10:31:27.120Z,5.53
2023-02-16T10:34:23.025Z,5.55
2023-02-16T10:37:17.173Z,5.55
2023-02-16T10:39:52.812Z,5.55
2023-02-16T10:42:54.498Z,5.57
2023-02-16T10:45:31.050Z,5.59
2023-02-16T10:47:59.903Z,5.65
2023-02-16T10:50:41.621Z,5.71
2023-02-16T10:53:35.337Z,5.78
2023-02-16T10:56:39.779Z,5.82
2023-02-16T10:59:17.978Z,5.87
2023-02-16T11:01:51.691Z,5.89
2023-02-16T11:04:43.644Z,5.95
2023-02-16T11:07:14.482Z,6.00
2023-02-16T11:09:45.438Z,6.10
2023-02-16T11:12:33.321Z,6.23
2023-02-16T11:15:07.388Z,6.31
2023-02-16T11:18:05.070Z,6.42
2023-02-16T11:20:45.359Z,6.53
2023-02-16T11:23:23.464Z,6.64
2023-02-16T11:26:00.535Z,6.75
2023-02-16T11:28:40.330Z,6.88
2023-02-16T11:31:41.452Z,6.93
2023-02-16T11:34:25.486Z,6.95
2023-02-16T11:37:03.838Z,6.97
2023-02-16T11:39:40.414Z,7.02
2023-02-16T11:42:20.107Z,7.02
2023-02-16T11:44:54.874Z,7.03
2023-02-16T11:47:24.781Z,7.10
2023-02-16T11:50:20.760Z,7.17
2023-02-16T11:52:52.561Z,7.20
2023-02-16T11:55:40.588Z,7.24
2023-02-16T11:58:24.916Z,7.28
2023-02-16T12:01:06.334Z,7.30
2023-02-16T12:04:13.127Z,7.31
2023-02-16T12:06:56.371Z,7.28
2023-02-16T12:09:28.580Z,7.24
2023-02-16T12:12:32.374Z,7.23
2023-02-16T12:15:13.049Z,7.28
2023-02-16T12:18:23.915Z,7.31
2023-02-16T12:21:07.599Z,7.36
2023-02-16T12:24:05.197Z,7.41
2023-02-16T12:26:53.545Z,7.49
2023-02-16T12:29:41.789Z,7.56
2023-02-16T12:32:16.308Z,7.64
2023-02-16T12:35:13.374Z,7.68
2023-02-16T12:38:05.065Z,7.75
2023-02-16T12:40:52.256Z,7.82
2023-02-16T12:43:36.979Z,7.85
2023-02-16T12:46:14.859Z,7.86
2023-02-16T12:49:10.149Z,7.90
2023-02-16T12:51:51.850Z,7.98
2023-02-16T12:54:30.735Z,8.02
2023-02-16T12:57:08.534Z,8.03
2023-02-16T13:00:04.131Z,8.07
2023-02-16T13:02:43.435Z,8.11
2023-02-16T13:05:21.317Z,8.10
2023-02-16T13:08:01.164Z,8.08
2023-02-16T13:11:06.215Z,8.09
2023-02-16T13:13:37.180Z,8.06
2023-02-16T13:16:35.164Z,8.04
2023-02-16T13:19:04.460Z,8.01
2023-02-16T13:21:52.292Z,7.97
2023-02-16T13:24:37.213Z,7.94
2023-02-16T13:27:31.877Z,7.93
2023-02-16T13:30:24.811Z,7.90
2023-02-16T13:33:14.713Z,7.88
2023-02-16T13:36:19.568Z,7.85
2023-02-16T13:39:07.673Z,7.87
2023-02-16T13:41:52.633Z,7.90
2023-02-16T13:44:28.627Z,7.94
2023-02-16T13:46:58.331Z,7.95
2023-02-16T13:49:28.515Z,7.98
2023-02-16T13:52:00.305Z,8.01
2023-02-16T13:54:40.808Z,8.01
2023-02-16T13:57:18.859Z,8.00
2023-02-16T13:59:59.256Z,7.99
2023-02-16T14:03:14.124Z,8.01
2023-02-16T14:05:44.900Z,8.03
2023-02-16T14:08:18.605Z,8.01
2023-02-16T14:10:53.986Z,7.99
2023-02-16T14:13:25.645Z,7.96
2023-02-16T14:15:57.581Z,7.95
2023-02-16T14:18:44.966Z,7.96
2023-02-16T14:21:38.372Z,7.94
2023-02-16T14:24:15.121Z,7.90
2023-02-16T14:27:15.454Z,7.87
2023-02-16T14:30:01.860Z,7.83
2023-02-16T14:32:40.343Z,7.80
2023-02-16T14:35:17.929Z,7.76
2023-02-16T14:37:59.202Z,7.76
2023-02-16T14:40:56.443Z,7.71
2023-02-16T14:43:32.892Z,7.67
2023-02-16T14:46:32.285Z,7.66
2023-02-16T14:49:41.581Z,7.63
2023-02-16T14:52:30.191Z,7.61
2023-02-16T14:55:36.560Z,7.60
2023-02-16T14:58:20.471Z,7.58
2023-02-16T15:01:13.449Z,7.56
2023-02-16T15:03:51.776Z,7.54
2023-02-16T15:06:28.278Z,7.53
2023-02-16T15:09:00.622Z,7.51
2023-02-16T15:11:58.997Z,7.47
2023-02-16T15:14:32.127Z,7.46
2023-02-16T15:17:00.948Z,7.42
2023-02-16T15:19:31.753Z,7.37
2023-02-16T15:22:17.960Z,7.32
2023-02-16T15:25:02.362Z,7.25
2023-02-16T15:27:33.512Z,7.15
2023-02-16T15:30:26.860Z,7.07
2023-02-16T15:33:00.752Z,6.97
2023-02-16T15:35:32.756Z,6.92
2023-02-16T15:38:02.768Z,6.87
2023-02-16T15:40:33.368Z,6.79
2023-02-16T15:43:31.172Z,6.71
2023-02-16T15:46:03.478Z,6.63
2023-02-16T15:48:34.908Z,6.57
2023-02-16T15:51:15.920Z,6.50
2023-02-16T15:54:04.938Z,6.42
2023-02-16T15:56:33.585Z,6.36
2023-02-16T15:59:17.893Z,6.27
2023-02-16T16:01:47.526Z,6.20
2023-02-16T16:04:21.083Z,6.18
2023-02-16T16:06:51.680Z,6.08
2023-02-16T16:09:23.740Z,6.03
2023-02-16T16:11:55.143Z,6.01
2023-02-16T16:14:26.052Z,5.99
2023-02-16T16:16:55.989Z,5.95
2023-02-16T16:19:37.909Z,5.86
2023-02-16T16:22:33.325Z,5.77
2023-02-16T16:25:03.931Z,5.67
2023-02-16T16:27:36.949Z,5.60
2023-02-16T16:30:20.112Z,5.52
2023-02-16T16:33:03.684Z,5.44
2023-02-16T16:35:40.451Z,5.38
2023-02-16T16:38:29.758Z,5.32
2023-02-16T16:41:02.815Z,5.26
2023-02-16T16:43:35.437Z,5.26
2023-02-16T16:46:14.197Z,5.30
2023-02-16T16:48:48.111Z,5.29
2023-02-16T16:51:40.589Z,5.28
2023-02-16T16:54:31.764Z,5.26
2023-02-16T16:57:00.356Z,5.24
2023-02-16T16:59:29.066Z,5.24
2023-02-16T17:01:58.075Z,5.20
2023-02-16T17:04:28.065Z,5.15
2023-02-16T17:06:56.413Z,5.11
2023-02-16T17:09:25.898Z,5.08
2023-02-16T17:11:55.251Z,5.06
2023-02-16T17:14:27.596Z,5.06
2023-02-16T17:16:56.700Z,5.06
2023-02-16T17:19:30.209Z,5.05
2023-02-16T17:21:59.249Z,4.99
2023-02-16T17:24:28.571Z,4.90
2023-02-16T17:26:57.795Z,4.79
2023-02-16T17:29:27.219Z,4.75
2023-02-16T17:31:56.564Z,4.75
2023-02-16T17:34:33.527Z,4.73
2023-02-16T17:37:08.424Z,4.75
2023-02-16T17:39:37.649Z,4.76
2023-02-16T17:42:12.043Z,4.79
2023-02-16T17:44:41.243Z,4.79
2023-02-16T17:47:16.848Z,4.76
2023-02-16T17:49:45.645Z,4.74
2023-02-16T17:52:14.372Z,4.71
2023-02-16T17:54:43.432Z,4.69
2023-02-16T17:57:13.719Z,4.68
2023-02-16T17:59:43.161Z,4.68
2023-02-16T18:02:15.258Z,4.69
2023-02-16T18:04:45.042Z,4.70
2023-02-16T18:07:15.445Z,4.72
2023-02-16T18:09:44.866Z,4.71
2023-02-16T18:12:14.420Z,4.68
2023-02-16T18:14:43.715Z,4.64
2023-02-16T18:17:13.484Z,4.64
2023-02-16T18:19:42.075Z,4.59
2023-02-16T18:22:13.211Z,4.55
2023-02-16T18:24:44.676Z,4.52
2023-02-16T18:27:14.270Z,4.50
2023-02-16T18:29:44.270Z,4.49
2023-02-16T18:32:15.567Z,4.48
2023-02-16T18:34:44.820Z,4.44
2023-02-16T18:37:13.595Z,4.46
2023-02-16T18:39:43.944Z,4.45
2023-02-16T18:42:14.040Z,4.45
2023-02-16T18:44:43.924Z,4.46
2023-02-16T18:47:13.625Z,4.47
2023-02-16T18:49:44.947Z,4.47
2023-02-16T18:52:13.695Z,4.49
2023-02-16T18:54:42.320Z,4.53
2023-02-16T18:57:10.848Z,4.55
2023-02-16T18:59:39.217Z,4.57
2023-02-16T19:02:08.360Z,4.58
2023-02-16T19:04:37.589Z,4.53
2023-02-16T19:07:06.411Z,4.54
2023-02-16T19:09:34.840Z,4.51
2023-02-16T19:12:03.261Z,4.51
2023-02-16T19:14:31.630Z,4.56
2023-02-16T19:16:59.955Z,4.55
2023-02-16T19:19:30.771Z,4.54
2023-02-16T19:22:00.392Z,4.50
2023-02-16T19:24:28.812Z,4.44
2023-02-16T19:26:58.539Z,4.42
2023-02-16T19:29:27.229Z,4.45
2023-02-16T19:31:56.168Z,4.45
2023-02-16T19:34:24.776Z,4.44
2023-02-16T19:36:53.272Z,4.43
2023-02-16T19:39:21.631Z,4.36
2023-02-16T19:41:49.914Z,4.33
2023-02-16T19:44:18.675Z,4.38
2023-02-16T19:46:47.086Z,4.42
2023-02-16T19:49:17.479Z,4.42
2023-02-16T19:51:47.972Z,4.44
2023-02-16T19:54:19.524Z,4.47
2023-02-16T19:56:48.846Z,4.51
2023-02-16T19:59:17.470Z,4.57
2023-02-16T20:01:46.064Z,4.60
2023-02-16T20:04:14.542Z,4.62
2023-02-16T20:06:44.719Z,4.64
2023-02-16T20:09:13.882Z,4.69
2023-02-16T20:11:42.670Z,4.71
2023-02-16T20:14:12.479Z,4.78
2023-02-16T20:16:41.792Z,4.86
2023-02-16T20:19:10.918Z,4.88
2023-02-16T20:21:41.226Z,4.87
2023-02-16T20:24:10.974Z,4.90
2023-02-16T20:26:45.975Z,4.95
2023-02-16T20:29:18.049Z,4.98
2023-02-16T20:31:55.776Z,4.98
2023-02-16T20:34:26.751Z,4.93
2023-02-16T20:36:55.569Z,4.94
2023-02-16T20:39:24.644Z,4.94
2023-02-16T20:41:53.273Z,4.92
2023-02-16T20:44:22.818Z,4.94
2023-02-16T20:46:51.577Z,4.94
2023-02-16T20:49:20.128Z,4.92
2023-02-16T20:51:48.657Z,4.91
2023-02-16T20:54:17.159Z,4.92
2023-02-16T20:56:45.581Z,4.90
2023-02-16T20:59:13.905Z,4.88
2023-02-16T21:01:46.729Z,4.89
2023-02-16T21:04:17.987Z,4.92
2023-02-16T21:06:46.588Z,4.92
2023-02-16T21:09:15.808Z,4.92
2023-02-16T21:11:44.476Z,4.91
2023-02-16T21:14:13.491Z,4.91
2023-02-16T21:16:43.141Z,4.91
2023-02-16T21:19:22.641Z,4.92
2023-02-16T21:21:53.813Z,4.87
2023-02-16T21:24:23.212Z,4.84
2023-02-16T21:26:52.172Z,4.88
2023-02-16T21:29:21.068Z,4.90
2023-02-16T21:31:49.737Z,4.92
2023-02-16T21:34:19.239Z,4.91
2023-02-16T21:36:48.319Z,4.95
2023-02-16T21:39:18.257Z,4.92
2023-02-16T21:41:49.474Z,4.88
2023-02-16T21:44:19.145Z,4.87
2023-02-16T21:46:48.784Z,4.89
2023-02-16T21:49:20.708Z,4.94
2023-02-16T21:51:50.050Z,4.97
2023-02-16T21:54:42.640Z,5.02
2023-02-16T21:57:11.588Z,5.11
2023-02-16T21:59:39.817Z,5.16
2023-02-16T22:02:11.559Z,5.22
2023-02-16T22:04:41.473Z,5.23
2023-02-16T22:07:09.935Z,5.25
2023-02-16T22:09:38.205Z,5.23
2023-02-16T22:12:07.881Z,5.21
2023-02-16T22:14:36.773Z,5.19
2023-02-16T22:17:06.707Z,5.20
2023-02-16T22:19:34.969Z,5.20
2023-02-16T22:22:03.538Z,5.25
2023-02-16T22:24:33.298Z,5.27
2023-02-16T22:27:02.100Z,5.30
2023-02-16T22:29:31.087Z,5.33
2023-02-16T22:31:59.795Z,5.40
2023-02-16T22:34:28.337Z,5.41
2023-02-16T22:36:57.765Z,5.41
2023-02-16T22:39:26.594Z,5.46
2023-02-16T22:41:55.546Z,5.48
2023-02-16T22:44:25.274Z,5.53
2023-02-16T22:46:55.127Z,5.58
2023-02-16T22:49:24.682Z,5.59
2023-02-16T22:51:53.662Z,5.60
2023-02-16T22:54:23.446Z,5.60
2023-02-16T22:56:53.713Z,5.59
2023-02-16T22:59:22.978Z,5.66
2023-02-16T23:01:51.511Z,5.74
2023-02-16T23:04:21.079Z,5.79
2023-02-16T23:06:50.682Z,5.81
2023-02-16T23:09:21.975Z,5.81
2023-02-16T23:11:52.182Z,5.82
2023-02-16T23:14:21.523Z,5.84
2023-02-16T23:16:54.962Z,5.87
2023-02-16T23:19:26.380Z,5.88
2023-02-16T23:21:56.004Z,5.88
2023-02-16T23:24:25.464Z,5.91
2023-02-16T23:26:55.377Z,5.88
2023-02-16T23:29:25.748Z,5.88
2023-02-16T23:31:55.002Z,5.93
2023-02-16T23:34:24.555Z,5.97
2023-02-16T23:36:53.764Z,5.99
2023-02-16T23:39:23.422Z,5.99
2023-02-16T23:41:52.757Z,5.95
2023-02-16T23:44:22.012Z,5.98
2023-02-16T23:46:50.843Z,6.00
2023-02-16T23:49:19.537Z,6.00
2023-02-16T23:51:48.755Z,6.00
2023-02-16T23:54:18.103Z,6.00
2023-02-16T23:56:47.361Z,6.02
2023-02-16T23:59:16.604Z,6.06
